Date,TemperatureHighF,TemperatureAvgF,TemperatureLowF,DewpointHighF,DewpointAvgF,DewpointLowF,HumidityHigh,HumidityAvg,HumidityLow,PressureMaxIn,PressureMinIn,WindSpeedMaxMPH,WindSpeedAvgMPH,GustSpeedMaxMPH,PrecipitationSumIn
2013-1-1,32.2,23.2,12.7,23.2,12.9,0.6,94,66,46,29.75,29.50,14,4,19,0.01
2013-1-2,27.0,12.0,1.9,10.1,0.6,-9.5,80,60,40,29.93,29.72,14,4,16,0.00
2013-1-3,25.7,5.3,-7.2,1.9,-4.9,-12.4,79,63,33,29.95,29.82,8,2,8,0.00
2013-1-4,35.4,19.4,-0.4,23.3,12.0,-4.5,86,73,56,29.80,29.60,17,2,17,0.00
2013-1-5,37.9,27.0,13.8,24.6,17.3,10.5,88,69,40,30.11,29.62,17,3,18,0.00
2013-1-6,39.0,25.1,13.6,26.7,19.6,10.3,92,80,61,30.07,29.78,5,1,11,0.00
2013-1-7,39.9,23.7,7.7,27.9,17.2,4.6,96,78,41,30.26,29.79,5,1,8,0.00
2013-1-8,26.1,9.6,3.4,20.5,6.6,0.5,89,87,79,30.20,30.07,2,1,4,0.01
2013-1-9,41.7,27.1,13.6,29.7,22.3,12.0,94,83,59,30.25,29.79,4,1,6,0.00
2013-1-10,45.7,37.8,23.9,31.1,25.2,20.2,87,61,43,30.39,29.81,18,6,29,0.04
2013-1-11,39.6,28.4,16.3,31.1,23.0,14.7,95,82,52,30.37,30.11,4,1,6,0.11
2013-1-12,42.4,35.5,32.4,40.3,34.5,31.1,98,96,91,30.10,29.99,2,0,3,0.05
2013-1-13,42.6,36.8,33.8,41.3,36.3,33.5,99,98,94,30.03,29.84,3,1,3,0.00
2013-1-14,60.1,43.0,32.9,49.7,37.2,26.8,99,82,50,30.09,29.73,12,2,18,0.01
2013-1-15,42.1,32.3,24.3,35.5,25.3,22.7,96,76,52,30.19,30.09,7,1,7,0.00
2013-1-16,29.1,28.6,27.3,27.8,25.6,24.3,97,88,85,30.12,29.66,2,0,2,0.00
2013-1-17,40.1,28.9,17.8,32.5,21.6,6.5,99,76,51,29.98,29.65,23,2,23,0.30
2013-1-18,23.4,13.8,3.4,5.7,-4.2,-11.8,78,46,29,30.28,29.93,11,3,17,0.00
2013-1-19,4.3,4.3,4.3,-1.0,-1.0,-1.0,78,78,78,30.23,30.23,1,1,2,0.00
2013-1-20,28.2,6.2,4.3,11.6,-0.5,-1.0,78,75,37,30.23,29.93,19,2,26,0.01
2013-1-21,29.3,21.3,12.0,14.3,3.8,-2.5,86,48,30,30.14,29.90,16,4,22,0.00
2013-1-22,26.8,17.2,4.5,14.3,5.4,-4.8,86,62,29,30.12,29.83,11,3,20,0.00
2013-1-23,10.6,2.0,-3.3,-3.5,-12.6,-16.9,81,51,31,30.19,30.09,13,4,17,0.00
2013-1-24,14.2,4.8,-5.3,-9.5,-13.8,-17.5,54,42,29,30.23,30.09,14,5,21,0.00
2013-1-25,22.5,11.9,2.7,0.3,-5.4,-10.0,59,46,30,30.30,30.12,11,4,16,0.00
2013-1-26,25.3,14.8,3.6,6.5,-1.7,-7.8,80,49,26,30.24,30.05,17,3,19,0.00
2013-1-27,27.1,16.8,7.7,1.3,-1.3,-5.5,64,45,31,30.50,30.23,13,5,17,0.00
2013-1-28,27.1,17.2,4.8,18.0,7.7,-1.6,89,69,29,30.48,30.12,3,1,6,0.00
2013-1-29,40.3,28.5,19.0,29.9,24.3,16.4,94,84,64,30.26,30.13,4,1,4,0.08
2013-1-30,53.6,36.1,31.5,53.3,35.3,30.2,99,97,95,30.22,29.52,7,0,8,0.14
2013-1-31,58.1,45.1,29.7,56.9,34.8,8.7,99,70,40,29.58,28.96,24,9,29,0.37
2013-2-1,32.4,25.1,16.5,18.8,9.8,3.2,80,53,35,30.12,29.58,16,6,19,0.00
2013-2-2,27.9,20.7,12.4,12.7,6.6,2.4,66,55,38,30.29,30.11,9,3,11,0.00
2013-2-3,28.2,23.6,14.9,17.5,14.5,11.4,90,68,57,30.11,29.78,7,2,10,0.00
2013-2-4,32.0,23.2,16.0,15.2,6.8,-1.9,82,52,29,29.96,29.76,20,5,22,0.00
2013-2-5,32.4,17.5,5.0,9.9,4.1,-0.7,80,57,30,30.09,29.96,8,1,9,0.00
2013-2-6,39.0,26.0,18.3,25.2,14.0,-8.9,87,63,28,30.37,30.00,10,3,17,0.01
2013-2-7,28.6,19.2,12.4,5.5,-3.7,-9.3,53,37,19,30.60,30.35,11,3,12,0.00
2013-2-8,17.6,14.5,11.8,13.7,8.7,-1.3,91,78,43,30.58,29.88,19,7,24,0.00
2013-2-9,24.1,16.9,12.6,18.5,12.8,5.9,93,84,70,30.23,29.75,20,8,26,0.09
2013-2-10,42.4,18.1,-4.4,17.7,4.5,-8.1,87,61,20,30.44,30.23,6,2,10,0.00
2013-2-11,33.3,21.7,5.5,31.8,19.0,1.8,98,89,75,30.41,29.67,2,0,3,0.04
2013-2-12,45.1,37.4,28.6,35.1,29.8,25.8,99,75,52,29.89,29.62,16,4,18,0.12
2013-2-13,46.8,32.6,21.4,28.0,22.2,18.4,90,68,39,29.92,29.81,8,2,11,0.00
2013-2-14,45.7,30.9,21.4,26.1,21.2,17.3,89,70,39,30.07,29.79,10,2,11,0.00
2013-2-15,54.9,32.0,15.3,32.6,23.7,13.2,92,75,39,30.06,29.95,7,1,9,0.00
2013-2-16,46.4,34.3,26.6,34.3,24.9,13.9,95,71,44,30.02,29.85,6,2,9,0.08
2013-2-17,27.3,19.8,14.5,16.6,9.1,1.8,86,64,41,29.77,29.39,24,8,24,0.00
2013-2-18,28.9,17.3,10.6,4.5,-0.0,-6.6,59,48,24,30.11,29.63,20,9,32,0.08
2013-2-19,44.1,35.8,18.9,35.9,18.5,-4.3,96,59,17,30.16,29.63,4,1,6,0.20
2013-2-20,35.2,31.5,24.4,35.0,23.0,14.1,99,72,52,29.79,29.56,13,6,20,0.01
2013-2-21,30.2,24.5,19.9,16.9,12.3,8.8,74,60,44,30.25,29.78,11,5,17,0.00
2013-2-22,45.3,30.0,13.5,23.1,18.1,10.6,90,64,35,30.47,30.25,9,2,12,0.00
2013-2-23,39.6,32.0,25.5,32.1,28.1,21.4,99,86,70,30.42,30.06,4,1,5,0.02
2013-2-24,33.1,31.6,28.6,32.8,31.1,27.9,99,98,95,30.05,29.83,2,0,7,0.04
2013-2-25,44.6,33.1,27.3,33.3,29.7,26.8,98,88,61,30.31,29.98,2,0,4,0.25
2013-2-26,42.6,34.0,27.5,36.1,30.1,25.8,99,86,64,30.42,30.28,5,1,8,0.00
2013-2-27,37.8,33.1,29.1,36.2,32.2,28.1,99,96,87,30.28,29.71,13,3,17,0.37
2013-2-28,31.8,31.8,31.8,31.6,31.6,31.6,99,99,99,29.69,29.69,0,0,0,0.00
2013-3-30,60.1,46.9,28.0,22.3,17.8,12.5,72,36,18,29.99,29.89,7,2,12,0.54
2013-3-31,61.0,41.5,21.9,38.6,24.6,18.7,88,57,21,30.01,29.73,8,2,12,0.00
2013-4-1,63.1,44.9,32.7,43.5,35.7,13.3,99,73,40,29.70,29.39,19,5,21,0.46
2013-4-2,40.5,32.8,27.5,18.4,11.1,7.1,49,40,30,29.76,29.64,19,7,24,0.00
2013-4-3,45.9,35.0,27.3,14.7,9.4,1.6,54,36,16,29.98,29.75,17,7,24,0.00
2013-4-4,56.8,42.2,28.9,19.0,10.9,2.9,53,31,11,30.14,29.91,13,5,17,0.00
2013-4-5,60.3,46.0,35.8,23.8,21.4,18.2,54,39,21,29.76,29.55,10,6,14,0.00
2013-4-6,45.9,34.9,26.2,20.5,5.4,-5.2,54,32,12,30.22,29.76,15,6,19,0.00
2013-4-7,56.8,40.4,21.2,35.6,23.2,12.0,78,53,22,30.23,29.86,10,3,12,0.15
2013-4-8,69.1,50.0,32.9,40.7,34.1,28.1,94,60,22,30.03,29.82,8,3,16,0.00
2013-4-9,61.7,47.6,40.1,47.8,41.3,35.1,96,80,50,30.00,29.79,9,2,14,0.17
2013-4-10,60.8,49.4,42.8,51.7,45.4,39.8,99,87,62,29.89,29.76,7,2,8,0.46
2013-4-11,52.7,45.6,41.2,46.0,37.4,23.3,99,75,45,30.06,29.76,5,2,8,0.22
2013-4-12,41.5,34.4,32.2,33.7,28.5,17.4,99,81,42,30.13,29.77,9,4,9,0.17
2013-4-13,53.4,42.4,32.9,38.7,35.8,32.7,99,79,55,29.83,29.68,7,2,8,0.09
2013-4-14,55.0,43.7,32.7,39.3,34.7,29.0,99,73,40,30.10,29.80,13,3,16,0.00
2013-4-15,59.2,41.8,26.2,38.1,31.4,25.3,96,71,34,30.30,30.10,8,2,12,0.00
2013-4-16,66.7,49.4,29.3,51.5,40.1,28.1,97,74,42,30.30,29.91,11,4,16,0.04
2013-4-17,67.5,56.1,37.2,53.1,34.1,26.0,84,48,22,30.24,29.91,10,4,14,0.00
2013-4-18,58.6,46.1,28.0,38.4,30.7,25.3,92,59,30,30.36,30.07,10,3,12,0.00
2013-4-19,77.7,62.8,49.1,62.1,52.6,34.9,88,70,50,30.05,29.52,17,5,21,0.00
2013-4-20,66.7,52.3,41.5,63.2,38.1,19.6,96,62,33,30.09,29.50,20,6,20,0.21
2013-4-21,55.9,42.8,29.7,25.3,19.5,13.1,78,42,20,30.59,30.10,11,4,12,0.00
2013-4-22,53.2,39.3,25.7,32.4,25.6,15.9,93,64,25,30.68,30.53,11,3,14,0.00
2013-4-23,41.2,37.1,29.7,40.4,34.6,26.7,98,91,83,30.53,30.09,8,4,12,0.00
2013-4-24,74.7,53.6,41.2,55.2,46.7,40.9,99,80,47,30.06,29.68,9,3,12,0.01
2013-4-25,64.4,54.9,36.9,51.0,36.1,25.5,95,54,23,30.19,29.68,11,4,15,0.02
2013-4-26,62.8,47.3,28.6,38.8,30.7,26.8,95,58,27,30.33,30.19,9,2,11,0.00
2013-4-27,68.2,50.2,29.7,41.0,33.5,27.9,95,58,27,30.33,30.20,8,2,9,0.00
2013-4-28,72.7,52.0,31.8,42.3,34.0,29.2,92,56,26,30.24,30.15,8,2,14,0.38
2013-4-29,74.7,53.0,34.0,46.5,37.9,31.9,93,61,31,30.17,30.09,9,2,9,0.00
2013-4-30,76.1,55.6,33.8,43.6,31.1,21.7,92,48,16,30.29,30.14,8,2,11,0.00
2013-5-1,78.6,55.2,30.0,36.3,29.3,20.2,88,46,13,30.36,30.28,7,2,10,0.00
2013-5-2,83.5,52.4,34.7,44.0,35.9,30.0,91,60,17,30.42,30.27,11,2,14,0.00
2013-5-3,72.0,52.3,34.5,46.2,39.6,32.4,92,65,38,30.45,30.30,11,3,12,0.00
2013-5-4,71.4,50.4,33.8,46.1,37.6,31.1,96,66,31,30.29,30.21,9,2,14,0.00
2013-5-5,70.7,49.2,28.9,43.6,35.2,27.2,96,64,29,30.25,30.16,6,2,8,0.00
2013-5-6,75.4,51.6,28.8,47.4,39.2,27.5,95,68,27,30.18,30.07,6,2,8,0.00
2013-5-7,84.7,61.5,40.6,56.5,49.1,40.1,99,71,26,30.08,29.99,6,2,9,0.00
2013-5-8,80.8,62.7,45.7,63.3,55.5,45.1,99,80,51,30.13,30.00,8,2,13,0.00
2013-5-9,65.5,58.6,55.2,61.5,57.5,55.0,99,96,86,29.99,29.81,7,2,7,0.31
2013-5-10,85.1,65.5,55.2,64.7,57.3,53.5,99,78,42,29.86,29.80,4,1,7,0.00
2013-5-11,68.5,60.5,52.5,63.9,58.4,51.7,99,93,81,29.83,29.60,6,1,8,0.34
2013-5-12,72.7,61.1,48.4,61.8,50.5,26.8,99,72,39,29.68,29.47,9,2,13,0.11
2013-5-13,60.1,49.3,37.6,33.4,30.0,26.3,81,49,30,29.94,29.69,10,3,11,0.00
2013-5-14,64.4,50.7,33.3,44.7,30.9,22.8,92,53,21,29.94,29.85,11,2,12,0.00
2013-5-15,70.0,50.9,30.7,51.7,38.5,27.7,97,70,21,29.94,29.58,7,1,11,0.12
2013-5-16,81.7,64.1,42.6,59.4,42.0,30.5,99,55,16,29.72,29.50,14,3,17,0.00
2013-5-17,72.0,58.6,46.6,44.9,40.4,34.2,84,53,28,30.12,29.73,10,2,11,0.00
2013-5-18,79.5,56.3,39.0,54.5,44.1,37.4,94,69,25,30.22,30.12,5,2,12,0.00
2013-5-19,65.7,53.8,49.5,53.3,49.5,47.8,98,86,64,30.27,30.15,5,2,8,0.04
2013-5-20,79.0,62.6,50.4,65.1,57.7,49.8,99,86,61,30.13,29.84,4,1,8,0.14
2013-5-21,63.1,55.1,48.7,58.2,53.3,48.5,99,94,83,30.00,29.85,9,2,11,0.24
2013-5-22,59.4,53.3,49.8,55.8,52.1,49.6,99,96,87,29.92,29.80,4,1,5,0.57
2013-5-23,67.8,59.0,50.0,67.6,58.1,49.7,99,97,88,29.85,29.70,3,1,5,0.17
2013-5-24,75.0,63.2,50.7,69.2,61.1,50.2,99,93,78,29.76,29.56,7,1,10,0.71
2013-5-25,51.3,48.4,39.7,50.3,47.3,39.5,99,96,89,29.76,29.59,17,4,17,0.59
2013-5-26,58.6,48.3,39.4,44.1,40.8,38.9,99,77,54,29.93,29.55,10,3,11,0.26
2013-5-27,71.6,55.7,37.2,47.7,37.5,30.5,96,58,25,30.08,29.94,9,2,11,0.00
2013-5-28,78.6,59.9,36.0,52.4,39.2,34.4,95,55,22,30.14,30.09,8,2,8,0.00
2013-5-29,61.2,58.3,47.7,59.6,57.5,44.9,99,97,90,30.09,29.91,4,1,4,0.17
2013-5-30,89.4,72.0,55.0,70.6,62.3,54.8,99,76,40,29.96,29.90,7,1,8,0.01
2013-5-31,95.9,78.0,58.8,72.3,64.2,58.6,99,68,35,29.99,29.82,4,1,7,0.00
2013-6-1,97.7,80.3,61.2,75.1,65.0,58.6,99,66,29,29.87,29.74,6,1,8,0.00
2013-6-2,94.8,78.3,66.0,73.1,67.4,61.9,99,74,39,29.76,29.59,8,2,12,0.30
2013-6-3,81.7,69.4,55.9,69.2,62.5,50.1,99,81,48,29.75,29.63,5,1,8,0.06
2013-6-4,68.7,60.0,49.6,51.2,45.7,42.2,93,62,41,30.00,29.73,8,2,14,0.00
2013-6-5,72.7,51.9,45.0,55.3,46.1,42.5,96,83,41,30.08,30.00,3,0,4,0.00
2013-6-22,88.3,77.6,57.9,71.1,66.9,57.1,97,71,49,29.93,29.83,4,1,5,3.02
2013-6-23,91.6,73.0,63.5,76.1,69.0,63.2,99,89,56,29.88,29.71,7,1,14,0.58
2013-6-24,95.2,82.5,67.1,74.3,69.9,64.8,99,70,44,29.72,29.60,14,2,14,0.06
2013-6-25,94.3,78.0,66.9,75.7,70.5,66.7,99,81,48,29.65,29.48,4,1,8,0.18
2013-6-26,82.9,69.9,59.2,73.4,68.4,58.9,99,95,65,29.63,29.46,9,1,13,0.19
2013-6-27,72.0,63.2,57.9,67.2,61.7,57.7,99,95,84,29.62,29.55,4,1,5,0.71
2013-6-28,66.4,61.0,55.6,66.1,60.7,55.3,99,99,99,29.55,29.26,6,2,10,0.61
2013-6-29,86.9,74.3,64.0,76.8,68.7,63.8,99,84,61,29.44,29.28,4,1,6,0.01
2013-6-30,90.7,76.8,64.4,75.7,69.2,64.1,99,80,51,29.67,29.44,4,1,6,0.01
2013-7-1,82.0,73.4,66.4,74.8,71.4,66.1,99,94,74,29.83,29.67,4,0,4,1.04
2013-7-2,74.5,66.3,60.3,74.2,66.0,60.0,99,99,97,29.97,29.81,7,1,8,0.08
2013-7-3,89.4,71.2,59.9,76.2,67.2,59.6,99,89,63,29.97,29.84,4,1,4,0.01
2013-7-4,96.4,82.7,69.3,79.5,73.7,69.0,99,77,49,29.93,29.81,4,1,5,0.00
2013-7-5,96.8,87.4,69.4,79.4,73.6,69.2,99,66,46,29.88,29.75,4,1,6,0.00
2013-7-6,92.8,86.6,70.2,76.0,71.6,67.3,91,62,53,29.78,29.69,4,1,7,0.00
2013-7-7,92.7,79.9,67.3,74.6,70.8,66.4,99,77,46,29.74,29.65,3,0,4,0.09
2013-7-8,81.3,71.2,63.1,74.2,68.7,62.3,99,92,74,29.82,29.65,5,1,5,0.46
2013-7-9,77.7,67.7,62.6,70.0,65.5,62.3,99,93,77,29.86,29.81,3,1,5,0.01
2013-7-10,71.2,65.2,62.6,71.0,64.9,62.3,99,99,99,29.84,29.54,3,1,4,0.18
2013-7-11,77.9,73.0,68.2,75.1,71.8,67.9,99,96,91,29.70,29.60,3,0,4,0.38
2013-7-12,87.1,71.4,62.1,66.5,62.6,60.6,99,77,44,29.97,29.71,8,2,9,0.00
2013-7-13,82.9,71.0,58.6,67.4,63.0,58.4,99,78,51,30.06,29.97,3,1,4,0.00
2013-7-14,92.7,77.7,62.6,75.9,69.9,62.3,99,79,52,30.04,29.93,4,1,6,0.00
2013-7-15,95.4,80.2,66.6,79.3,70.7,66.3,99,76,43,29.94,29.82,8,0,9,0.00
2013-7-16,97.2,80.0,66.2,77.3,71.4,65.9,99,78,44,29.91,29.85,5,0,7,0.00
2013-7-17,97.3,82.5,67.6,79.6,72.0,67.4,99,74,41,29.91,29.70,14,1,14,0.00
2013-7-18,97.3,80.0,70.7,77.2,71.9,68.8,99,79,45,29.75,29.68,5,1,6,0.08
2013-7-19,98.2,84.0,68.9,81.2,73.8,68.6,99,74,48,29.68,29.41,7,1,8,0.01
2013-7-20,94.5,81.4,69.1,75.0,69.3,65.6,89,68,47,29.52,29.38,5,2,11,0.00
2013-7-21,85.3,72.4,63.1,69.7,64.1,59.8,99,78,51,29.75,29.54,4,1,6,0.00
2013-7-22,77.9,68.2,62.6,70.9,65.8,61.6,99,92,76,29.78,29.66,4,1,7,0.01
2013-7-23,73.0,67.2,64.2,71.2,66.6,64.0,99,98,91,29.65,29.29,4,1,5,1.12
2013-7-24,88.7,72.3,60.4,78.5,64.2,53.6,99,78,55,29.72,29.32,4,1,10,0.04
2013-7-25,74.1,63.8,55.8,61.6,56.0,51.3,99,77,53,29.85,29.71,8,1,10,0.02
2013-7-26,74.1,66.0,61.3,66.7,63.8,61.1,99,93,75,29.83,29.65,7,1,14,0.28
2013-7-27,88.7,73.5,57.6,69.7,63.0,57.3,99,74,37,29.76,29.70,5,1,6,0.21
2013-7-28,73.8,66.7,60.3,69.5,65.4,60.0,99,96,84,29.77,29.74,8,2,8,0.00
2013-7-29,86.4,69.8,63.0,72.5,66.6,62.7,99,90,62,29.79,29.71,5,1,8,0.00
2013-7-30,84.9,70.0,55.9,69.4,58.9,53.8,99,73,37,29.83,29.76,5,1,13,0.00
2013-7-31,88.0,69.9,53.6,67.5,59.1,53.3,99,73,36,29.86,29.78,4,1,5,0.00
2013-8-1,86.4,67.9,54.7,68.7,61.9,54.4,99,84,47,29.78,29.62,6,1,6,0.13
2013-8-2,85.6,70.7,62.6,71.5,64.3,56.1,99,83,43,29.62,29.50,4,1,8,0.53
2013-8-3,82.0,67.9,55.9,65.6,59.9,55.7,99,79,45,29.58,29.49,5,1,8,0.00
2013-8-4,82.6,67.3,54.0,64.1,57.2,53.7,99,74,44,29.61,29.50,4,1,7,0.00
2013-8-5,77.7,64.4,50.7,58.0,50.5,44.2,96,65,36,29.78,29.60,7,2,10,0.00
2013-8-6,83.5,63.5,44.2,60.1,50.9,43.7,99,69,32,29.90,29.78,5,1,6,0.00
2013-8-7,85.8,65.9,48.2,63.3,55.7,47.9,99,74,42,29.91,29.85,4,1,8,0.00
2013-8-8,87.1,70.4,57.2,72.6,65.4,56.1,99,85,58,29.85,29.72,4,1,4,0.00
2013-8-9,74.1,71.4,66.2,73.7,70.9,65.9,99,98,95,29.75,29.47,4,1,4,0.64
2013-8-10,86.2,71.1,55.8,77.1,60.8,50.9,99,74,36,29.75,29.51,7,1,8,0.01
2013-8-11,83.8,65.6,49.3,64.4,55.0,49.0,99,74,34,29.80,29.73,6,1,7,0.00
2013-8-12,86.7,68.9,52.7,67.4,57.8,52.4,99,73,35,29.75,29.65,4,1,5,0.00
2013-8-13,77.4,66.7,57.2,68.1,63.4,56.9,99,90,72,29.65,29.43,4,0,6,0.00
2013-8-14,77.5,67.3,57.2,66.0,57.5,51.1,99,74,44,29.65,29.38,7,2,11,0.00
2013-8-15,79.3,63.5,49.1,60.5,53.0,48.8,99,73,39,29.83,29.66,4,1,8,0.00
2013-8-16,85.3,64.9,48.4,60.2,55.1,48.1,99,75,35,29.92,29.81,4,1,7,0.00
2013-8-17,86.2,65.9,50.5,68.1,57.1,50.3,99,77,42,30.01,29.91,4,1,7,0.00
2013-8-18,85.8,67.5,52.3,67.4,60.1,52.1,99,80,50,30.01,29.80,3,0,4,0.00
2013-8-19,85.3,69.8,54.1,67.4,61.2,53.9,99,78,46,29.80,29.65,4,1,6,0.00
2013-8-20,90.9,72.0,55.9,71.3,62.5,55.7,99,77,40,29.82,29.70,4,0,4,0.00
2013-8-21,93.6,74.1,57.2,72.3,63.5,56.9,99,75,38,29.86,29.74,4,1,5,0.00
2013-8-22,92.5,75.9,58.8,72.0,64.7,58.6,99,73,39,29.75,29.53,5,1,7,0.00
2013-8-23,85.6,71.1,54.7,68.3,58.3,48.4,96,68,37,29.88,29.54,103,3,103,0.00
2013-8-24,85.3,63.2,45.7,57.8,49.4,43.5,99,69,25,30.05,29.89,4,1,7,0.00
2013-8-25,86.9,64.8,45.5,63.0,53.8,45.2,99,73,31,30.08,29.89,3,1,5,0.00
2013-8-26,84.2,69.7,59.0,69.7,65.0,57.2,99,87,61,29.89,29.60,4,1,4,0.20
2013-8-27,91.6,74.2,63.5,71.2,66.7,63.2,99,80,45,29.65,29.57,6,1,8,0.00
2013-8-28,91.4,72.1,58.8,72.3,65.4,58.6,99,82,49,29.75,29.60,5,1,9,0.35
2013-8-29,67.8,65.4,63.5,66.1,64.1,62.0,99,96,82,29.83,29.71,7,2,11,0.05
2013-8-30,86.4,72.0,61.7,70.1,65.8,61.4,99,83,56,29.74,29.53,3,1,4,0.00
2013-8-31,83.8,75.6,66.4,74.7,71.6,66.1,99,88,67,29.56,29.50,4,0,4,0.00
2013-9-1,92.1,76.0,68.5,74.8,71.5,68.3,99,88,51,29.63,29.51,3,1,5,0.33
2013-9-2,73.8,70.2,68.0,73.5,70.0,67.7,99,99,99,29.62,29.47,4,1,4,1.06
2013-9-3,87.6,71.6,61.5,73.4,67.9,61.3,99,90,56,29.52,29.44,3,0,5,0.00
2013-9-4,84.6,69.5,58.1,64.4,58.8,54.5,99,73,37,29.63,29.52,5,1,9,0.00
2013-9-5,75.4,60.7,46.6,61.4,53.2,41.5,99,80,34,29.88,29.60,6,1,7,0.02
2013-9-6,74.1,55.3,38.3,51.0,44.2,38.0,99,73,33,29.95,29.79,4,1,6,0.00
2013-9-7,82.8,65.3,44.6,57.0,51.9,44.3,99,67,32,29.78,29.58,5,1,6,0.00
2013-9-8,72.9,63.4,49.1,60.8,51.4,42.4,93,67,40,29.76,29.46,7,2,11,0.00
2013-9-9,73.4,59.3,41.7,50.3,47.9,41.5,99,70,36,29.88,29.83,4,1,5,0.00
2013-9-10,72.7,61.2,47.8,69.9,59.9,47.6,99,96,85,29.85,29.74,2,0,3,0.05
2013-9-11,96.6,79.3,65.8,79.6,72.4,65.6,99,82,49,29.77,29.64,4,1,9,0.14
2013-9-12,86.2,70.5,64.4,76.9,69.3,64.1,99,96,70,29.67,29.43,4,0,7,1.77
2013-9-13,78.8,65.2,55.6,75.9,64.6,55.3,99,98,75,29.49,29.32,4,0,8,1.45
2013-9-14,74.3,60.0,49.3,61.4,55.5,49.0,99,86,61,29.77,29.49,4,1,6,0.02
2013-9-15,73.6,57.3,41.4,55.6,49.8,41.1,99,80,41,29.86,29.75,4,1,5,0.00
2013-9-16,71.1,57.2,43.0,58.7,51.3,36.6,99,82,60,29.99,29.71,5,1,9,0.00
2013-9-17,69.4,50.2,35.2,48.3,41.3,34.7,99,76,39,30.13,29.99,8,1,11,0.00
2013-9-18,79.3,55.8,36.1,58.0,46.1,35.9,99,77,29,30.02,29.83,4,1,4,0.00
2013-9-19,82.9,58.7,40.6,62.9,50.7,40.4,99,80,37,29.85,29.75,5,0,5,0.00
2013-9-20,85.3,59.0,44.4,66.2,51.6,44.2,99,81,40,29.82,29.75,5,1,5,0.00
2013-9-21,76.5,61.4,48.4,64.6,57.7,48.1,99,89,60,29.75,29.47,4,1,9,0.00
2013-9-22,74.3,65.9,55.0,66.7,60.2,48.7,99,84,55,29.50,29.32,4,2,7,0.84
2013-9-23,64.6,52.4,39.7,46.3,42.8,39.1,99,72,50,29.70,29.54,8,2,10,0.00
2013-9-24,66.2,49.6,34.0,47.6,42.1,33.7,99,79,44,29.68,29.54,9,1,12,0.00
2013-9-25,66.9,51.8,38.1,51.4,46.8,37.9,99,85,56,29.72,29.59,8,1,8,0.00
2013-9-26,73.0,57.3,43.0,53.9,49.9,42.7,99,80,48,29.87,29.71,7,1,10,0.00
2013-9-27,68.9,58.7,50.0,56.7,53.3,49.7,99,84,60,29.98,29.86,5,1,6,0.00
2013-9-28,79.3,57.9,43.3,63.3,50.8,43.1,99,81,46,30.06,29.98,6,1,7,0.00
2013-9-29,75.7,50.3,37.8,58.5,45.1,37.5,99,86,43,29.99,29.86,4,0,4,0.00
2013-10-1,81.9,61.3,41.0,64.4,53.0,40.7,99,79,41,29.69,29.56,5,1,7,0.00
2013-10-2,82.0,58.4,43.7,63.3,53.3,43.4,99,86,50,29.63,29.52,49,2,49,0.00
2013-10-3,82.0,64.2,40.1,63.0,51.7,39.8,99,69,36,29.80,29.72,3,1,6,0.35
2013-10-4,70.5,57.9,43.9,61.4,53.0,43.6,99,86,54,29.81,29.76,2,0,4,0.00
2013-10-5,67.3,59.9,55.2,56.7,53.1,48.6,99,79,58,29.86,29.79,5,1,6,0.00
2013-10-6,56.7,52.5,49.1,55.1,48.9,42.0,99,88,70,30.00,29.86,8,2,8,0.21
2013-10-7,72.7,61.0,52.3,70.3,60.4,52.1,99,98,88,29.89,29.50,6,2,9,0.48
2013-10-8,66.7,53.6,38.5,58.0,45.6,38.2,99,78,44,30.11,29.60,8,2,11,0.01
2013-10-9,69.3,46.6,32.0,51.3,39.7,31.8,99,81,42,30.21,30.10,4,1,4,0.00
2013-10-10,63.0,48.2,32.7,52.3,41.6,32.5,99,82,45,30.10,29.91,2,0,2,0.00
2013-10-11,71.1,52.6,41.2,56.0,47.8,40.9,99,87,46,29.91,29.84,4,0,5,0.00
2013-10-12,56.1,50.6,41.4,54.2,49.0,41.1,99,95,86,30.15,29.90,6,2,10,0.00
2013-10-13,58.5,46.1,36.0,54.4,43.6,35.7,99,92,71,30.19,30.12,3,0,6,0.00
2013-10-14,70.7,49.7,31.5,53.7,42.9,31.2,99,81,45,30.12,29.96,4,1,4,0.00
2013-10-15,66.0,56.5,49.5,55.6,52.7,48.6,99,88,67,30.00,29.92,4,1,8,0.00
2013-10-16,73.9,55.4,48.7,60.6,50.9,-5.4,99,87,10,29.91,29.64,3,1,4,0.00
2013-10-17,77.2,60.5,48.9,62.6,53.1,47.6,99,80,43,29.64,29.43,7,1,8,0.00
2013-10-18,69.6,58.9,45.9,57.2,52.1,43.1,99,81,52,29.60,29.31,8,2,12,0.18
2013-10-19,71.4,53.1,34.9,50.7,43.4,34.6,99,73,43,29.67,29.48,4,1,5,0.00
2013-10-20,64.9,51.9,38.8,49.2,40.6,34.1,99,70,37,29.72,29.40,14,2,14,0.00
2013-10-21,122.4,48.3,-1.1,50.6,38.5,-29.0,99,75,10,29.81,29.70,9,1,9,0.00
2013-10-22,61.2,48.2,35.1,53.2,44.5,34.8,99,88,70,29.70,29.42,4,1,4,0.00
2013-10-23,59.7,45.9,30.4,42.9,37.1,30.1,99,74,44,29.50,29.30,3,1,6,0.00
2013-10-24,54.5,44.1,30.0,38.2,32.2,29.0,98,65,43,29.58,29.34,11,3,15,0.00
2013-10-25,51.6,34.7,26.6,37.2,29.0,23.3,99,82,46,29.84,29.58,9,1,11,0.00
2013-10-26,50.7,37.6,23.2,38.6,29.4,22.7,99,75,44,29.84,29.58,6,1,8,0.00
2013-10-27,58.1,45.5,29.8,40.8,33.5,26.5,87,65,45,29.75,29.50,7,2,11,0.00
2013-10-28,59.5,41.4,26.1,38.5,29.9,23.7,97,67,43,30.07,29.74,12,3,14,0.00
2013-10-29,52.7,37.6,21.7,33.2,22.4,17.3,97,57,27,30.16,30.07,4,1,6,0.00
2013-10-30,51.6,34.7,23.7,37.2,28.5,19.8,97,79,53,30.07,29.89,4,1,10,0.00
2013-10-31,57.9,38.1,25.7,57.7,37.3,25.5,99,97,88,29.94,29.49,3,0,5,0.21
2013-11-1,70.7,61.8,51.6,63.3,57.7,48.8,99,87,67,29.49,29.10,17,4,20,0.08
2013-11-2,68.5,51.2,36.1,50.9,44.3,35.9,99,81,43,29.45,29.32,5,1,9,0.01
2013-11-3,50.0,43.9,29.1,48.9,33.8,17.5,96,70,41,30.13,29.45,7,3,8,0.01
2013-11-4,46.4,30.0,20.1,25.2,17.9,14.6,92,65,30,30.41,30.14,11,2,11,0.00
2013-11-5,52.9,33.6,18.7,33.2,25.5,16.5,95,76,40,30.42,30.22,26,1,26,0.02
2013-11-6,62.6,44.8,29.5,46.3,38.7,28.0,96,81,53,30.22,29.71,8,1,8,0.01
2013-11-7,59.7,50.5,34.2,57.8,47.2,31.1,97,89,77,29.70,29.38,4,1,7,0.05
2013-11-8,47.5,38.3,26.8,32.6,27.4,23.2,91,66,48,29.75,29.50,9,3,11,0.00
2013-11-9,45.7,37.5,31.3,29.3,23.7,21.0,78,58,43,29.88,29.74,10,2,12,0.00
2013-11-10,45.3,39.1,33.6,42.2,36.5,28.3,99,90,77,29.75,29.44,6,1,8,0.11
2013-11-11,51.6,41.7,32.4,35.7,30.5,28.0,86,66,41,29.78,29.51,11,3,15,0.01
2013-11-12,39.2,32.0,26.4,34.2,21.9,15.0,88,66,54,29.85,29.56,9,3,12,0.00
2013-11-13,35.4,25.2,21.9,15.4,13.2,10.0,67,60,40,29.91,29.81,6,2,8,0.00
2013-11-14,52.0,34.6,23.7,29.7,22.6,14.6,91,63,41,29.81,29.71,14,2,14,0.00
2013-11-15,57.9,34.5,22.1,34.0,24.3,19.8,96,73,24,29.89,29.80,4,1,5,0.00
2013-11-16,64.0,41.2,25.5,36.5,26.6,21.7,89,62,21,30.04,29.88,3,1,4,0.00
2013-11-17,47.8,39.6,24.4,47.6,38.6,22.5,99,96,89,30.04,29.60,4,1,36,0.17
2013-11-18,67.8,54.7,44.1,60.2,47.8,33.8,99,80,43,29.59,29.22,11,3,14,0.22
2013-11-19,46.2,37.4,30.9,33.6,22.3,16.4,68,54,41,29.94,29.33,14,6,14,0.00
2013-11-20,45.5,31.1,19.0,18.0,15.7,13.3,84,55,28,30.33,29.95,11,3,11,0.00
2013-11-21,50.7,29.2,15.3,26.8,16.2,8.5,96,65,18,30.33,30.06,7,1,8,0.00
2013-11-22,40.5,35.2,28.0,38.3,32.5,20.2,99,90,72,30.06,29.50,3,0,4,0.09
2013-11-23,43.5,36.1,26.2,40.4,26.4,17.2,99,70,40,29.61,29.44,11,4,18,0.00
2013-11-24,26.4,21.5,16.9,20.3,6.2,0.1,78,52,41,29.83,29.45,17,7,22,0.00
2013-11-25,32.7,21.5,15.4,13.3,0.5,-7.3,61,41,18,30.02,29.82,13,4,21,0.00
2013-11-26,36.3,30.4,24.8,31.9,23.5,13.7,98,76,58,30.01,29.82,4,1,5,0.01
2013-11-27,59.5,46.6,32.4,59.3,46.3,31.9,99,99,98,29.80,28.93,8,2,16,1.88
2013-11-28,32.9,28.4,19.8,17.2,10.8,6.9,63,48,39,30.09,29.70,0,0,0,0.00
2013-11-29,33.4,22.5,10.2,10.6,7.8,6.0,85,55,35,30.45,30.23,6,2,12,0.00
2013-11-30,34.2,18.6,5.5,22.1,12.5,3.3,92,78,49,30.50,30.13,5,1,8,0.00
2013-12-1,34.7,32.5,27.1,34.5,30.8,21.5,99,93,78,30.12,29.75,2,0,5,0.27
2013-12-2,38.5,35.6,33.8,37.6,35.3,33.6,99,99,96,29.75,29.64,5,1,8,0.01
2013-12-3,47.7,34.0,25.5,40.8,30.6,-16.0,99,91,10,29.64,29.56,49,2,49,0.00
2013-12-4,41.7,30.9,24.6,30.7,27.0,24.0,99,87,64,29.91,29.62,4,1,7,0.01
2013-12-5,37.0,33.0,24.6,36.1,32.6,24.4,99,98,91,29.94,29.62,2,0,4,0.05
2013-12-6,46.6,40.6,33.6,45.6,39.2,31.0,99,95,68,29.82,29.56,5,1,7,0.04
2013-12-7,40.3,33.2,25.3,33.6,26.5,14.6,99,79,47,30.08,29.78,11,2,11,0.09
2013-12-8,30.2,23.3,14.7,21.1,14.8,12.1,95,71,48,30.27,30.13,5,1,8,0.00
2013-12-9,29.5,26.1,25.5,28.8,19.4,16.5,99,76,68,30.22,29.61,3,0,6,0.00
2013-12-10,31.8,23.6,18.1,31.6,21.5,14.2,99,92,82,29.63,29.48,0,0,0,0.00
2013-12-11,35.2,20.6,9.0,22.0,14.3,7.7,96,78,55,29.85,29.65,7,1,99,0.01
2013-12-12,16.2,16.2,16.2,13.8,13.8,13.8,90,90,90,29.94,29.72,2,2,2,0.00
2013-12-13,28.2,18.7,13.3,17.0,11.6,3.1,90,75,51,29.98,29.62,8,2,8,0.00
2013-12-15,17.1,12.9,7.7,16.4,12.0,6.6,97,96,95,29.39,29.31,2,0,3,0.00
2013-12-16,27.9,12.4,0.3,20.8,5.9,-1.6,97,77,45,29.89,29.39,14,3,14,0.00
2013-12-17,18.1,5.5,-11.4,11.6,1.3,-14.9,92,82,68,29.98,29.70,5,2,8,0.00
2013-12-18,36.1,21.1,9.3,27.3,16.8,7.5,94,84,56,29.73,29.55,8,2,9,0.00
2013-12-19,39.6,24.0,9.9,27.5,20.1,8.3,97,86,58,29.78,29.62,8,1,10,0.04
2013-12-20,43.9,33.0,25.3,34.8,30.2,23.9,99,90,69,29.81,29.60,2,0,2,0.08
2013-12-21,50.4,36.7,32.7,43.8,35.5,32.5,99,96,76,29.64,29.55,2,0,2,0.07
2013-12-22,38.7,33.1,30.0,38.4,32.9,29.8,99,99,99,29.69,29.57,9,2,10,0.28
2013-12-23,33.8,32.9,32.2,33.6,32.6,31.9,99,99,99,29.79,29.69,2,0,2,0.11
2013-12-24,37.6,29.9,19.2,32.5,22.7,10.8,99,76,54,29.90,29.76,3,0,5,0.01
2013-12-25,25.3,14.0,7.0,9.4,5.4,-1.9,89,69,45,30.25,29.89,0,0,0,0.00
2013-12-26,27.0,15.2,7.2,24.7,13.2,4.9,97,92,83,30.20,29.79,0,0,0,0.00
2013-12-27,36.1,17.3,3.2,25.6,13.8,1.7,97,87,59,29.92,29.85,8,1,9,0.00
2013-12-28,42.3,26.3,7.3,32.6,22.1,6.1,96,85,63,29.87,29.64,4,1,8,0.06
2013-12-29,40.6,30.7,23.2,35.0,29.4,22.7,99,95,77,29.70,29.19,6,1,11,0.58
2013-12-30,40.5,27.7,8.6,35.6,22.6,1.5,99,82,62,29.88,29.21,11,2,14,0.06
2013-12-31,22.1,8.4,1.0,6.4,1.3,-1.8,89,74,49,29.87,29.73,0,0,0,0.00
2014-1-1,26.6,10.3,-1.8,11.0,3.6,-4.4,91,75,50,30.09,29.83,8,2,12,0.00
2014-1-2,12.9,3.5,-4.0,9.4,0.1,-7.2,89,85,81,30.09,29.64,19,5,19,0.01